createdAt,value
2019-02-04T00:00:58.522Z,12.63
2019-02-04T00:03:28.089Z,13.07
2019-02-04T00:05:57.615Z,12.80
2019-02-04T00:08:27.412Z,13.17
2019-02-04T00:10:59.204Z,12.73
2019-02-04T00:13:28.148Z,14.40
2019-02-04T00:15:57.627Z,13.97
2019-02-04T00:18:27.180Z,14.47
2019-02-04T00:20:56.941Z,14.73
2019-02-04T00:23:26.400Z,14.00
2019-02-04T00:25:55.879Z,14.37
2019-02-04T00:28:25.357Z,12.93
2019-02-04T00:30:55.076Z,12.60
2019-02-04T00:33:24.548Z,13.37
2019-02-04T00:35:54.271Z,13.40
2019-02-04T00:38:23.814Z,13.37
2019-02-04T00:40:53.305Z,13.03
2019-02-04T00:43:22.887Z,14.67
2019-02-04T00:45:52.419Z,14.03
2019-02-04T00:48:21.970Z,13.67
2019-02-04T00:50:51.882Z,13.53
2019-02-04T00:53:21.329Z,14.00
2019-02-04T00:55:50.815Z,14.17
2019-02-04T00:58:20.267Z,13.47
2019-02-04T01:00:49.820Z,14.43
2019-02-04T01:03:19.460Z,14.60
2019-02-04T01:05:49.239Z,13.43
2019-02-04T01:08:18.845Z,14.50
2019-02-04T01:10:48.318Z,14.33
2019-02-04T01:13:17.831Z,14.63
2019-02-04T01:15:47.400Z,12.43
2019-02-04T01:18:16.859Z,13.37
2019-02-04T01:20:46.404Z,13.53
2019-02-04T01:23:15.896Z,13.77
2019-02-04T01:25:45.401Z,14.33
2019-02-04T01:28:14.870Z,13.87
2019-02-04T01:30:44.399Z,13.33
2019-02-04T01:33:13.944Z,14.00
2019-02-04T01:35:43.491Z,14.03
2019-02-04T01:38:13.035Z,14.80
2019-02-04T01:40:42.623Z,14.47
2019-02-04T01:43:12.153Z,13.87
2019-02-04T01:45:41.654Z,14.47
2019-02-04T01:48:11.159Z,15.20
2019-02-04T01:50:40.680Z,15.90
2019-02-04T01:53:10.137Z,15.00
2019-02-04T01:55:39.591Z,15.00
2019-02-04T01:58:09.121Z,14.77
2019-02-04T02:00:39.265Z,15.57
2019-02-04T02:03:08.817Z,14.90
2019-02-04T02:05:38.395Z,15.10
2019-02-04T02:08:07.912Z,15.50
2019-02-04T02:10:37.624Z,16.17
2019-02-04T02:13:07.225Z,15.20
2019-02-04T02:15:36.691Z,15.50
2019-02-04T02:18:06.356Z,15.67
2019-02-04T02:20:35.902Z,15.17
2019-02-04T02:23:05.544Z,16.57
2019-02-04T02:25:35.145Z,16.00
2019-02-04T02:28:05.869Z,16.70
2019-02-04T02:30:35.322Z,16.43
2019-02-04T02:33:05.010Z,17.30
2019-02-04T02:35:34.493Z,17.03
2019-02-04T02:38:04.067Z,16.80
2019-02-04T02:40:34.239Z,17.47
2019-02-04T02:43:04.793Z,16.63
2019-02-04T02:45:34.414Z,16.57
2019-02-04T02:48:04.081Z,16.10
2019-02-04T02:50:33.609Z,16.00
2019-02-04T02:53:03.217Z,16.63
2019-02-04T02:55:32.794Z,17.60
2019-02-04T02:58:02.273Z,15.80
2019-02-04T03:00:32.462Z,17.90
2019-02-04T03:03:02.156Z,16.50
2019-02-04T03:05:31.676Z,16.93
2019-02-04T03:08:01.150Z,15.83
2019-02-04T03:10:32.794Z,16.90
2019-02-04T03:13:02.355Z,17.13
2019-02-04T03:15:31.776Z,16.40
2019-02-04T03:18:01.342Z,16.33
2019-02-04T03:20:30.847Z,17.97
2019-02-04T03:23:00.374Z,17.13
2019-02-04T03:25:29.824Z,17.83
2019-02-04T03:27:59.291Z,18.77
2019-02-04T03:30:32.443Z,19.27
2019-02-04T03:33:02.445Z,19.40
2019-02-04T03:35:32.027Z,19.60
2019-02-04T03:38:02.114Z,20.63
2019-02-04T03:40:33.197Z,18.57
2019-02-04T03:43:02.737Z,19.77
2019-02-04T03:45:32.262Z,19.40
2019-02-04T03:48:06.338Z,19.27
2019-02-04T03:50:32.985Z,18.33
2019-02-04T03:53:02.506Z,19.30
2019-02-04T03:55:32.173Z,18.83
2019-02-04T03:58:01.639Z,19.17
2019-02-04T04:00:36.427Z,19.07
2019-02-04T04:03:06.123Z,18.37
2019-02-04T04:05:35.684Z,19.00
2019-02-04T04:08:05.264Z,20.10
2019-02-04T04:10:34.815Z,19.30
2019-02-04T04:13:04.349Z,20.77
2019-02-04T04:15:33.809Z,19.97
2019-02-04T04:18:15.140Z,19.67
2019-02-04T04:20:35.422Z,19.37
2019-02-04T04:23:05.010Z,19.73
2019-02-04T04:25:34.492Z,19.77
2019-02-04T04:28:05.523Z,19.67
2019-02-04T04:30:35.133Z,21.13
2019-02-04T04:33:04.600Z,20.53
2019-02-04T04:35:34.149Z,19.63
2019-02-04T04:38:03.671Z,20.47
2019-02-04T04:40:33.409Z,20.53
2019-02-04T04:43:02.940Z,20.83
2019-02-04T04:45:32.767Z,20.40
2019-02-04T04:48:02.236Z,19.77
2019-02-04T04:50:31.692Z,20.50
2019-02-04T04:53:01.255Z,20.93
2019-02-04T04:55:30.875Z,21.63
2019-02-04T04:58:00.377Z,20.73
2019-02-04T05:00:31.927Z,21.10
2019-02-04T05:03:01.562Z,20.87
2019-02-04T05:05:31.123Z,21.53
2019-02-04T05:08:00.549Z,22.03
2019-02-04T05:10:30.024Z,20.57
2019-02-04T05:12:59.640Z,21.33
2019-02-04T05:15:29.863Z,21.97
2019-02-04T05:17:59.371Z,23.00
2019-02-04T05:20:28.927Z,22.83
2019-02-04T05:22:58.520Z,21.57
2019-02-04T05:25:27.984Z,21.83
2019-02-04T05:27:57.615Z,20.70
2019-02-04T05:30:27.509Z,22.13
2019-02-04T05:32:56.984Z,22.33
2019-02-04T05:35:26.509Z,22.97
2019-02-04T05:37:56.136Z,22.57
2019-02-04T05:40:25.674Z,22.50
2019-02-04T05:42:55.148Z,22.47
2019-02-04T05:45:24.903Z,21.93
2019-02-04T05:47:54.366Z,22.33
2019-02-04T05:50:23.801Z,22.27
2019-02-04T05:52:53.294Z,21.87
2019-02-04T05:55:23.740Z,23.90
2019-02-04T05:57:53.222Z,22.93
2019-02-04T06:00:27.942Z,21.47
2019-02-04T06:03:06.903Z,20.67
2019-02-04T06:05:36.604Z,21.97
2019-02-04T06:08:06.284Z,22.27
2019-02-04T06:10:35.743Z,21.77
2019-02-04T06:13:05.426Z,21.37
2019-02-04T06:15:34.880Z,21.47
2019-02-04T06:18:04.648Z,20.87
2019-02-04T06:20:34.813Z,20.53
2019-02-04T06:23:04.415Z,23.03
2019-02-04T06:25:33.967Z,21.63
2019-02-04T06:28:05.020Z,22.03
2019-02-04T06:30:34.737Z,21.93
2019-02-04T06:33:04.199Z,20.57
2019-02-04T06:35:33.642Z,20.70
2019-02-04T06:38:03.189Z,20.87
2019-02-04T06:40:32.670Z,19.90
2019-02-04T06:43:02.203Z,19.10
2019-02-04T06:45:31.733Z,19.33
2019-02-04T06:48:01.238Z,18.87
2019-02-04T06:50:50.968Z,18.13
2019-02-04T06:53:20.496Z,17.77
2019-02-04T06:55:49.919Z,17.63
2019-02-04T06:58:19.326Z,17.53
2019-02-04T07:00:48.750Z,17.47
2019-02-04T07:03:18.158Z,18.00
2019-02-04T07:05:47.561Z,17.07
2019-02-04T07:08:16.985Z,17.00
2019-02-04T07:10:46.542Z,17.27
2019-02-04T07:13:15.949Z,17.70
2019-02-04T07:15:45.365Z,17.73
2019-02-04T07:18:14.791Z,17.77
2019-02-04T07:20:44.340Z,16.97
2019-02-04T07:23:13.814Z,16.07
2019-02-04T07:25:43.310Z,16.27
2019-02-04T07:28:12.723Z,15.10
2019-02-04T07:30:42.201Z,15.23
2019-02-04T07:33:11.707Z,14.33
2019-02-04T07:35:41.112Z,15.07
2019-02-04T07:38:10.515Z,14.70
2019-02-04T07:40:39.965Z,13.80
2019-02-04T07:43:09.368Z,12.70
2019-02-04T07:45:38.804Z,14.00
2019-02-04T07:48:08.348Z,13.60
2019-02-04T07:50:37.903Z,14.27
2019-02-04T07:53:07.335Z,14.00
2019-02-04T07:55:36.576Z,15.63
2019-02-04T07:58:06.047Z,13.83
2019-02-04T08:00:35.804Z,14.07
2019-02-04T08:03:05.344Z,13.10
2019-02-04T08:05:34.745Z,13.10
2019-02-04T08:08:04.414Z,12.47
2019-02-04T08:10:33.824Z,11.83
2019-02-04T08:13:03.622Z,12.17
2019-02-04T08:15:36.753Z,11.70
2019-02-04T08:18:07.381Z,12.33
2019-02-04T08:20:37.040Z,11.93
2019-02-04T08:23:06.451Z,12.17
2019-02-04T08:25:36.083Z,11.43
2019-02-04T08:28:05.645Z,11.53
2019-02-04T08:30:38.524Z,12.03
2019-02-04T08:33:08.206Z,11.20
2019-02-04T08:35:37.626Z,11.40
2019-02-04T08:38:07.184Z,11.03
2019-02-04T08:40:37.113Z,11.43
2019-02-04T08:43:06.984Z,11.23
2019-02-04T08:45:36.533Z,10.93
2019-02-04T08:48:06.747Z,11.43
2019-02-04T08:50:36.317Z,11.07
2019-02-04T08:53:05.951Z,10.63
2019-02-04T08:55:35.806Z,11.67
2019-02-04T08:58:06.117Z,11.00
2019-02-04T09:00:35.704Z,10.10
2019-02-04T09:03:05.316Z,10.10
2019-02-04T09:05:34.733Z,9.87
2019-02-04T09:08:04.329Z,10.33
2019-02-04T09:10:34.824Z,10.27
2019-02-04T09:13:04.596Z,10.17
2019-02-04T09:15:34.081Z,9.63
2019-02-04T09:18:03.853Z,10.13
2019-02-04T09:20:33.335Z,10.30
2019-02-04T09:23:05.906Z,9.87
2019-02-04T09:25:34.551Z,9.60
2019-02-04T09:28:04.073Z,9.03
2019-02-04T09:30:33.537Z,9.63
2019-02-04T09:33:03.070Z,8.80
2019-02-04T09:35:32.666Z,9.03
2019-02-04T09:38:02.193Z,8.63
2019-02-04T09:40:43.637Z,8.97
2019-02-04T09:43:13.289Z,8.80
2019-02-04T09:45:42.871Z,8.37
2019-02-04T09:48:16.874Z,8.43
2019-02-04T09:50:51.022Z,8.97
2019-02-04T09:53:20.493Z,7.83
2019-02-04T09:55:50.032Z,8.60
2019-02-04T09:58:19.560Z,8.57
2019-02-04T10:00:49.087Z,7.77
2019-02-04T10:03:18.560Z,8.23
2019-02-04T10:05:48.372Z,8.03
2019-02-04T10:08:17.892Z,7.27
2019-02-04T10:10:47.349Z,7.90
2019-02-04T10:13:16.893Z,6.87
2019-02-04T10:15:46.953Z,7.10
2019-02-04T10:18:16.754Z,7.00
2019-02-04T10:20:46.330Z,7.93
2019-02-04T10:23:16.473Z,7.50
2019-02-04T10:25:46.306Z,6.97
2019-02-04T10:28:16.885Z,7.20
2019-02-04T10:30:46.675Z,6.60
2019-02-04T10:33:16.897Z,7.00
2019-02-04T10:35:46.560Z,6.50
2019-02-04T10:38:16.653Z,6.60
2019-02-04T10:40:46.635Z,7.03
2019-02-04T10:43:16.506Z,7.03
2019-02-04T10:45:46.225Z,6.50
2019-02-04T10:48:15.869Z,6.60
2019-02-04T10:50:46.849Z,6.47
2019-02-04T10:53:16.983Z,6.80
2019-02-04T10:55:46.918Z,5.80
2019-02-04T10:58:17.017Z,6.47
2019-02-04T11:00:47.076Z,6.03
2019-02-04T11:03:18.007Z,6.00
2019-02-04T11:05:48.071Z,6.07
2019-02-04T11:08:17.699Z,5.97
2019-02-04T11:10:47.157Z,5.63
2019-02-04T11:13:18.047Z,6.23
2019-02-04T11:15:48.155Z,6.17
2019-02-04T11:18:18.447Z,6.00
2019-02-04T11:20:57.649Z,5.77
2019-02-04T11:23:20.233Z,5.73
2019-02-04T11:25:50.082Z,5.60
2019-02-04T11:28:20.260Z,6.20
2019-02-04T11:30:54.313Z,6.07
2019-02-04T11:33:23.997Z,5.93
2019-02-04T11:35:53.510Z,5.80
2019-02-04T11:38:23.308Z,6.10
2019-02-04T11:40:53.814Z,5.50
2019-02-04T11:43:23.298Z,5.67
2019-02-04T11:45:55.007Z,5.53
2019-02-04T11:48:24.372Z,6.20
2019-02-04T11:50:54.037Z,5.23
2019-02-04T11:53:32.250Z,5.83
2019-02-04T11:55:54.896Z,6.27
2019-02-04T11:58:24.401Z,5.87
2019-02-04T12:00:54.466Z,5.97
2019-02-04T12:03:24.035Z,5.43
2019-02-04T12:05:53.584Z,5.77
2019-02-04T12:08:23.065Z,5.93
2019-02-04T12:11:00.262Z,5.70
2019-02-04T12:13:29.761Z,5.47
2019-02-04T12:15:59.407Z,5.37
2019-02-04T12:18:28.888Z,5.43
2019-02-04T12:20:58.308Z,5.27
2019-02-04T12:23:27.712Z,5.50
2019-02-04T12:25:57.179Z,6.13
2019-02-04T12:28:26.707Z,5.80
2019-02-04T12:30:56.200Z,5.83
2019-02-04T12:33:25.628Z,6.20
2019-02-04T12:35:55.599Z,5.43
2019-02-04T12:38:25.149Z,5.27
2019-02-04T12:40:54.614Z,5.20
2019-02-04T12:43:24.110Z,5.10
2019-02-04T12:45:53.602Z,4.93
2019-02-04T12:48:23.355Z,5.03
2019-02-04T12:50:53.273Z,4.47
2019-02-04T12:53:22.700Z,4.47
2019-02-04T12:55:52.168Z,4.77
2019-02-04T12:58:21.701Z,4.80
2019-02-04T13:00:51.191Z,3.90
2019-02-04T13:03:20.674Z,4.80
2019-02-04T13:05:52.075Z,4.27
2019-02-04T13:08:21.560Z,4.20
2019-02-04T13:10:51.035Z,4.67
2019-02-04T13:13:20.964Z,4.43
2019-02-04T13:15:50.579Z,4.50
2019-02-04T13:18:20.041Z,4.80
2019-02-04T13:20:49.464Z,4.30
2019-02-04T13:23:18.858Z,4.70
2019-02-04T13:25:48.266Z,4.47
2019-02-04T13:28:18.494Z,4.53
2019-02-04T13:30:48.096Z,4.63
2019-02-04T13:33:17.940Z,4.70
2019-02-04T13:35:47.673Z,4.67
2019-02-04T13:38:17.232Z,5.17
2019-02-04T13:40:46.840Z,4.53
2019-02-04T13:43:16.311Z,4.33
2019-02-04T13:45:45.879Z,4.83
2019-02-04T13:48:16.060Z,4.40
2019-02-04T13:50:45.678Z,4.40
2019-02-04T13:53:15.242Z,4.43
2019-02-04T13:55:44.885Z,4.40
2019-02-04T13:58:14.715Z,4.10
2019-02-04T14:00:44.261Z,4.10
2019-02-04T14:03:13.800Z,3.70
2019-02-04T14:05:43.364Z,3.87
2019-02-04T14:08:12.835Z,4.47
2019-02-04T14:10:46.085Z,3.93
2019-02-04T14:13:15.018Z,3.90
2019-02-04T14:15:44.812Z,4.03
2019-02-04T14:18:14.351Z,3.37
2019-02-04T14:20:44.081Z,3.77
2019-02-04T14:23:13.622Z,3.20
2019-02-04T14:25:43.045Z,3.40
2019-02-04T14:28:12.618Z,3.87
2019-02-04T14:30:42.549Z,3.80
2019-02-04T14:33:12.123Z,4.10
2019-02-04T14:35:41.604Z,3.83
2019-02-04T14:38:11.304Z,4.03
2019-02-04T14:40:40.736Z,3.60
2019-02-04T14:43:27.192Z,3.80
2019-02-04T14:46:06.965Z,3.70
2019-02-04T14:49:20.529Z,3.97
2019-02-04T14:52:21.636Z,3.80
2019-02-04T14:55:23.818Z,3.63
2019-02-04T14:58:21.943Z,4.27
2019-02-04T15:01:41.421Z,4.20
2019-02-04T15:04:24.033Z,3.80
2019-02-04T15:07:10.201Z,3.93
2019-02-04T15:10:09.053Z,3.60
2019-02-04T15:13:00.904Z,3.83
2019-02-04T15:15:52.766Z,3.83
2019-02-04T15:18:41.478Z,3.83
2019-02-04T15:21:27.150Z,3.80
2019-02-04T15:24:08.963Z,3.70
2019-02-04T15:26:48.348Z,3.50
2019-02-04T15:29:22.607Z,3.77
2019-02-04T15:31:59.423Z,3.50
2019-02-04T15:34:44.798Z,3.70
2019-02-04T15:37:33.372Z,3.80
2019-02-04T15:40:23.853Z,3.80
2019-02-04T15:43:27.996Z,4.70
2019-02-04T15:46:20.204Z,4.13
2019-02-04T15:49:05.979Z,3.60
2019-02-04T15:51:39.848Z,3.57
2019-02-04T15:54:09.328Z,3.70
2019-02-04T15:56:39.003Z,3.50
2019-02-04T15:59:08.478Z,3.23
2019-02-04T16:01:37.996Z,3.90
2019-02-04T16:04:29.336Z,3.53
2019-02-04T16:06:58.850Z,3.33
2019-02-04T16:09:30.055Z,3.40
2019-02-04T16:11:59.629Z,3.57
2019-02-04T16:14:29.236Z,3.40
2019-02-04T16:16:59.126Z,3.70
2019-02-04T16:19:28.652Z,3.50
2019-02-04T16:21:58.178Z,3.10
2019-02-04T16:24:27.852Z,3.37
2019-02-04T16:26:57.326Z,3.47
2019-02-04T16:29:27.355Z,3.10
2019-02-04T16:31:57.001Z,3.30
2019-02-04T16:34:26.745Z,3.37
2019-02-04T16:36:56.150Z,3.33
2019-02-04T16:39:25.683Z,3.47
2019-02-04T16:41:55.162Z,3.20
2019-02-04T16:44:25.210Z,3.23
2019-02-04T16:46:54.827Z,3.10
2019-02-04T16:49:24.365Z,3.03
2019-02-04T16:51:53.944Z,2.97
2019-02-04T16:54:23.443Z,3.03
2019-02-04T16:56:53.127Z,3.30
2019-02-04T16:59:22.749Z,3.33
2019-02-04T17:01:52.202Z,3.30
2019-02-04T17:04:21.668Z,3.63
2019-02-04T17:06:51.173Z,3.50
2019-02-04T17:09:20.798Z,3.00
2019-02-04T17:11:50.397Z,3.07
2019-02-04T17:14:20.460Z,3.60
2019-02-04T17:16:50.006Z,3.20
2019-02-04T17:19:19.605Z,3.07
2019-02-04T17:21:49.326Z,3.00
2019-02-04T17:24:18.812Z,3.53
2019-02-04T17:26:48.317Z,3.57
2019-02-04T17:29:17.848Z,3.53
2019-02-04T17:31:47.439Z,3.27
2019-02-04T17:34:16.897Z,3.43
2019-02-04T17:36:46.461Z,3.50
2019-02-04T17:39:16.150Z,3.80
2019-02-04T17:41:46.003Z,3.80
2019-02-04T17:44:15.543Z,4.13
2019-02-04T17:46:45.038Z,3.50
2019-02-04T17:49:14.615Z,3.57
2019-02-04T17:51:44.133Z,3.80
2019-02-04T17:54:13.744Z,3.70
2019-02-04T17:56:43.857Z,3.80
2019-02-04T17:59:13.408Z,4.00
2019-02-04T18:01:43.284Z,3.73
2019-02-04T18:04:12.704Z,3.70
2019-02-04T18:06:42.147Z,3.53
2019-02-04T18:09:11.858Z,3.60
2019-02-04T18:11:41.762Z,3.43
2019-02-04T18:14:30.581Z,3.43
2019-02-04T18:17:00.114Z,3.40
2019-02-04T18:19:29.598Z,4.07
2019-02-04T18:21:59.291Z,3.73
2019-02-04T18:24:28.758Z,3.80
2019-02-04T18:26:58.552Z,3.40
2019-02-04T18:29:27.995Z,3.40
2019-02-04T18:31:57.779Z,3.20
2019-02-04T18:34:27.343Z,2.97
2019-02-04T18:36:56.824Z,3.13
2019-02-04T18:39:26.322Z,2.80
2019-02-04T18:41:55.932Z,2.43
2019-02-04T18:44:25.393Z,2.80
2019-02-04T18:46:55.173Z,2.73
2019-02-04T18:49:24.638Z,2.63
2019-02-04T18:51:54.198Z,2.57
2019-02-04T18:54:23.933Z,2.70
2019-02-04T18:56:53.380Z,2.90
2019-02-04T18:59:22.864Z,2.80
2019-02-04T19:01:52.793Z,2.87
2019-02-04T19:04:22.246Z,2.93
2019-02-04T19:06:51.899Z,2.10
2019-02-04T19:09:21.870Z,2.70
2019-02-04T19:11:51.334Z,2.90
2019-02-04T19:14:20.904Z,2.60
2019-02-04T19:16:50.702Z,2.83
2019-02-04T19:19:20.173Z,2.90
2019-02-04T19:21:49.641Z,2.80
2019-02-04T19:24:19.101Z,2.60
2019-02-04T19:26:48.593Z,2.77
2019-02-04T19:29:18.143Z,2.47
2019-02-04T19:31:48.028Z,2.80
2019-02-04T19:34:17.477Z,3.10
2019-02-04T19:36:46.942Z,2.90
2019-02-04T19:39:16.470Z,2.90
2019-02-04T19:41:45.930Z,2.73
2019-02-04T19:44:15.430Z,2.70
2019-02-04T19:46:45.127Z,2.93
2019-02-04T19:49:14.634Z,3.30
2019-02-04T19:51:44.108Z,3.53
2019-02-04T19:54:21.207Z,3.27
2019-02-04T19:56:44.826Z,3.40
2019-02-04T19:59:14.266Z,3.37
2019-02-04T20:01:43.816Z,3.20
2019-02-04T20:04:13.230Z,3.63
2019-02-04T20:06:42.713Z,3.40
2019-02-04T20:09:12.399Z,3.20
2019-02-04T20:11:41.925Z,3.47
2019-02-04T20:14:11.549Z,4.00
2019-02-04T20:16:40.906Z,3.70
2019-02-04T20:19:10.345Z,3.33
2019-02-04T20:21:39.870Z,3.60
2019-02-04T20:24:09.363Z,4.03
2019-02-04T20:26:38.862Z,3.53
2019-02-04T20:29:08.364Z,3.70
2019-02-04T20:31:37.888Z,3.80
2019-02-04T20:34:07.390Z,3.93
2019-02-04T20:36:36.927Z,3.90
2019-02-04T20:39:08.776Z,3.67
2019-02-04T20:41:38.223Z,4.13
2019-02-04T20:44:07.780Z,3.97
2019-02-04T20:46:37.255Z,4.47
2019-02-04T20:49:06.720Z,4.40
2019-02-04T20:51:36.164Z,4.50
2019-02-04T20:54:06.084Z,4.07
2019-02-04T20:56:35.728Z,4.43
2019-02-04T20:59:05.313Z,4.33
2019-02-04T21:01:34.867Z,4.37
2019-02-04T21:04:04.721Z,3.80
2019-02-04T21:06:34.250Z,4.23
2019-02-04T21:09:05.340Z,4.37
2019-02-04T21:11:36.439Z,4.27
2019-02-04T21:14:07.019Z,4.30
2019-02-04T21:16:36.484Z,4.40
2019-02-04T21:19:06.138Z,4.43
2019-02-04T21:21:35.589Z,4.17
2019-02-04T21:24:06.508Z,4.80
2019-02-04T21:26:36.147Z,4.37
2019-02-04T21:29:06.026Z,4.87
2019-02-04T21:31:35.753Z,4.40
2019-02-04T21:34:05.497Z,4.27
2019-02-04T21:36:35.244Z,4.33
2019-02-04T21:39:07.002Z,4.80
2019-02-04T21:41:36.976Z,4.23
2019-02-04T21:44:07.488Z,4.63
2019-02-04T21:46:36.972Z,4.03
2019-02-04T21:49:06.622Z,4.33
2019-02-04T21:51:36.071Z,5.23
2019-02-04T21:54:06.152Z,4.80
2019-02-04T21:56:35.945Z,4.60
2019-02-04T21:59:05.654Z,5.00
2019-02-04T22:01:35.219Z,4.47
2019-02-04T22:04:05.376Z,4.70
2019-02-04T22:06:34.934Z,5.53
2019-02-04T22:09:07.211Z,5.33
2019-02-04T22:11:36.692Z,5.43
2019-02-04T22:14:07.459Z,5.07
2019-02-04T22:16:36.910Z,5.70
2019-02-04T22:19:06.673Z,5.73
2019-02-04T22:21:36.103Z,5.53
2019-02-04T22:24:06.266Z,5.07
2019-02-04T22:26:36.143Z,5.33
2019-02-04T22:29:06.529Z,5.07
2019-02-04T22:31:35.962Z,5.37
2019-02-04T22:34:06.518Z,5.67
2019-02-04T22:36:36.096Z,5.43
2019-02-04T22:39:08.899Z,5.33
2019-02-04T22:41:38.411Z,5.13
2019-02-04T22:44:08.066Z,4.83
2019-02-04T22:46:37.559Z,5.23
2019-02-04T22:49:07.126Z,5.60
2019-02-04T22:51:36.727Z,5.70
2019-02-04T22:54:08.095Z,6.00
2019-02-04T22:56:37.731Z,5.73
2019-02-04T22:59:07.412Z,5.93
2019-02-04T23:01:41.617Z,6.40
2019-02-04T23:04:11.474Z,5.90
2019-02-04T23:06:40.983Z,5.07
2019-02-04T23:09:10.826Z,5.43
2019-02-04T23:11:40.428Z,5.80
2019-02-04T23:14:10.773Z,5.47
2019-02-04T23:16:40.383Z,5.70
2019-02-04T23:19:10.123Z,5.70
2019-02-04T23:21:40.049Z,5.83
2019-02-04T23:24:09.544Z,5.87
2019-02-04T23:26:39.145Z,5.67
2019-02-04T23:29:08.659Z,5.67
2019-02-04T23:31:38.172Z,5.63
2019-02-04T23:34:08.241Z,5.60
2019-02-04T23:36:37.722Z,5.00
2019-02-04T23:39:09.967Z,5.33
2019-02-04T23:41:39.398Z,4.97
2019-02-04T23:44:08.855Z,4.47
2019-02-04T23:46:38.300Z,4.87
2019-02-04T23:49:08.317Z,4.90
2019-02-04T23:51:37.987Z,4.90
2019-02-04T23:54:07.758Z,5.27
2019-02-04T23:56:37.213Z,4.83
2019-02-04T23:59:06.894Z,5.40
